Time;durP1;ratioP1;P1;durP2;ratioP2;P2;SDS_P1;SDS_P2;PMS_P1;PMS_P2;Temp;Humidity;BMP_temperature;BMP_pressure;BME280_temperature;BME280_humidity;BME280_pressure;Samples;Min_cycle;Max_cycle;Signal;HPM_P1;HPM_P2
2022/10/02 00:02:06;;;;;;;7.88;1.33;;;;;;;21.16;55.54;101418.19;5090829;28;20028;-75
2022/10/02 00:05:03;;;;;;;10.98;2.75;;;;;;;21.42;53.11;101418.81;5087426;28;20028;-75
2022/10/02 00:07:59;;;;;;;8.55;1.52;;;;;;;21.22;53.02;101421.53;5075704;28;20498;-75
2022/10/02 00:10:58;;;;;;;17.65;2.38;;;;;;;21.89;52.57;101428.16;5102946;28;20081;-75
2022/10/02 00:13:32;;;;;;;9.90;1.83;;;;;;;22.40;50.38;101423.03;5106439;28;20123;-75
2022/10/02 00:16:00;;;;;;;10.93;2.17;;;;;;;21.67;53.39;101428.34;5089075;28;20036;-75
2022/10/02 00:18:30;;;;;;;8.73;1.92;;;;;;;20.88;55.71;101431.00;5089728;28;20484;-75
2022/10/02 00:21:07;;;;;;;16.02;2.15;;;;;;;21.97;51.81;101431.31;5088034;28;20028;-75
2022/10/02 00:23:39;;;;;;;16.83;1.92;;;;;;;22.52;51.03;101438.38;5088571;28;20100;-75
2022/10/02 00:26:13;;;;;;;11.07;2.05;;;;;;;23.34;48.63;101419.94;5088370;28;20391;-75
2022/10/02 00:28:55;;;;;;;20.38;2.08;;;;;;;23.42;49.11;101419.53;5085874;28;20044;-75
2022/10/02 00:31:33;;;;;;;10.00;1.88;;;;;;;22.61;51.56;101430.88;5084350;28;20016;-74
2022/10/02 00:34:22;;;;;;;21.58;2.75;;;;;;;21.76;53.83;101432.34;5088781;28;20058;-75
2022/10/02 00:36:50;;;;;;;17.42;2.47;;;;;;;21.99;54.38;101439.22;5088114;28;20151;-74
2022/10/02 00:39:50;;;;;;;12.73;2.55;;;;;;;23.10;50.57;101438.13;5085764;28;20031;-75
2022/10/02 00:42:26;;;;;;;19.90;3.75;;;;;;;22.51;52.90;101441.97;5105723;28;20039;-75
2022/10/02 00:45:14;;;;;;;26.35;3.17;;;;;;;22.71;51.29;101445.47;5098906;28;20025;-75
2022/10/02 00:48:09;;;;;;;18.15;2.58;;;;;;;22.04;54.56;101442.53;5086686;28;20153;-75
2022/10/02 00:50:40;;;;;;;14.45;2.50;;;;;;;22.79;51.82;101445.91;5075625;28;20043;-75
2022/10/02 00:53:24;;;;;;;20.85;4.13;;;;;;;22.41;54.08;101442.53;5090674;28;20020;-75
2022/10/02 00:55:59;;;;;;;25.80;3.25;;;;;;;23.62;49.72;101445.13;5103478;28;20046;-75
2022/10/02 00:58:52;;;;;;;15.77;2.78;;;;;;;22.34;53.73;101455.31;5093215;28;20085;-75
2022/10/02 01:01:22;;;;;;;17.98;3.55;;;;;;;22.69;52.41;101450.00;5095685;27;20503;-74
2022/10/02 01:03:53;;;;;;;24.65;2.88;;;;;;;23.61;49.25;101436.22;5078709;28;20020;-75
2022/10/02 01:06:23;;;;;;;25.13;3.30;;;;;;;23.68;49.51;101444.75;5092269;28;20439;-75
2022/10/02 01:08:50;;;;;;;21.40;2.65;;;;;;;24.15;48.03;101449.25;5083390;28;20399;-75
2022/10/02 01:11:16;;;;;;;17.67;3.70;;;;;;;24.56;46.43;101448.66;5088749;28;20031;-75
2022/10/02 01:13:43;;;;;;;20.48;3.17;;;;;;;23.77;47.91;101459.38;5092449;28;20016;-75
2022/10/02 01:16:12;;;;;;;25.45;2.92;;;;;;;24.36;47.31;101456.97;5092990;28;20028;-75
2022/10/02 01:18:39;;;;;;;23.55;3.38;;;;;;;24.36;47.46;101463.19;5091406;28;20111;-75
2022/10/02 01:21:11;;;;;;;16.88;3.00;;;;;;;23.11;50.21;101455.81;5094229;28;20028;-75
2022/10/02 01:23:55;;;;;;;24.98;3.10;;;;;;;22.74;52.83;101461.28;5077439;28;20016;-75
2022/10/02 01:26:20;;;;;;;26.67;3.15;;;;;;;23.13;50.97;101449.50;5100079;28;20028;-75
2022/10/02 01:28:47;;;;;;;16.75;3.17;;;;;;;23.45;50.52;101449.59;5107151;27;20093;-75
2022/10/02 01:31:14;;;;;;;18.83;3.47;;;;;;;24.40;47.84;101463.88;5108710;28;20509;-75
2022/10/02 01:33:41;;;;;;;21.25;4.22;;;;;;;24.11;48.66;101452.19;5092439;28;20476;-75
2022/10/02 01:36:09;;;;;;;23.40;3.50;;;;;;;23.39;49.51;101444.56;5089435;28;20484;-74
2022/10/02 01:38:35;;;;;;;23.70;4.40;;;;;;;23.77;49.80;101454.06;5092642;28;20391;-75
2022/10/02 01:41:00;;;;;;;18.95;3.10;;;;;;;23.79;49.00;101454.84;5085322;28;20440;-75
2022/10/02 01:43:36;;;;;;;21.52;3.25;;;;;;;24.75;46.05;101458.25;5087979;28;20067;-75
2022/10/02 01:46:31;;;;;;;16.02;3.10;;;;;;;24.49;46.62;101468.66;5091866;28;20052;-74
2022/10/02 01:49:05;;;;;;;19.27;2.83;;;;;;;24.58;46.99;101472.59;5083216;28;20043;-75
2022/10/02 01:52:01;;;;;;;23.60;3.85;;;;;;;24.66;46.68;101470.38;5087977;28;20070;-75
2022/10/02 01:54:44;;;;;;;23.20;2.88;;;;;;;23.25;50.36;101469.31;5099952;28;20050;-75
2022/10/02 01:57:35;;;;;;;20.90;3.35;;;;;;;23.33;49.60;101474.25;5090126;28;20122;-75
2022/10/02 02:00:21;;;;;;;20.52;3.75;;;;;;;23.90;48.68;101480.97;5105363;28;20391;-75
2022/10/02 02:02:55;;;;;;;26.02;3.22;;;;;;;24.16;47.15;101466.13;5103664;28;20028;-75
2022/10/02 02:05:49;;;;;;;21.42;3.90;;;;;;;24.32;46.96;101479.47;5074325;28;20033;-75
2022/10/02 02:08:17;;;;;;;;;;;;;;;23.95;46.67;101476.25;5090456;28;20097;-75
2022/10/02 02:10:51;;;;;;;23.88;3.30;;;;;;;24.41;46.39;101475.41;5089003;28;19917;-75
2022/10/02 02:13:20;;;;;;;18.10;3.17;;;;;;;23.41;49.54;101469.38;5091247;28;20077;-75
2022/10/02 02:16:12;;;;;;;26.10;3.70;;;;;;;23.99;47.20;101475.97;5103635;28;20491;-75
2022/10/02 02:18:50;;;;;;;15.30;2.83;;;;;;;23.85;47.57;101479.38;5079804;28;20321;-75
2022/10/02 02:21:32;;;;;;;23.30;3.00;;;;;;;24.42;46.48;101477.13;5102496;28;20024;-75
2022/10/02 02:24:02;;;;;;;18.00;3.10;;;;;;;23.56;47.59;101472.97;5095325;28;20028;-75
2022/10/02 02:26:29;;;;;;;26.65;3.55;;;;;;;24.37;45.86;101474.72;5107630;28;20031;-75
2022/10/02 02:29:05;;;;;;;19.17;2.40;;;;;;;24.39;46.07;101481.69;5092303;28;20034;-75
2022/10/02 02:31:39;;;;;;;14.48;2.58;;;;;;;23.65;47.25;101476.97;5091472;28;20111;-75
2022/10/02 02:34:11;;;;;;;15.23;3.53;;;;;;;23.95;46.54;101477.09;5086495;28;20028;-75
2022/10/02 02:36:43;;;;;;;16.58;2.58;;;;;;;23.25;48.67;101477.31;5091780;28;20036;-75
2022/10/02 02:39:25;;;;;;;21.00;3.37;;;;;;;24.00;46.81;101482.16;5087752;28;20028;-75
2022/10/02 02:41:57;;;;;;;17.98;3.15;;;;;;;24.02;46.24;101485.63;5092295;28;20028;-75
2022/10/02 02:44:28;;;;;;;21.02;3.10;;;;;;;23.40;48.44;101486.31;5098222;27;20434;-75
2022/10/02 02:47:02;;;;;;;24.52;2.63;;;;;;;23.46;48.31;101477.09;5090190;28;20028;-75
2022/10/02 02:49:41;;;;;;;18.27;2.83;;;;;;;23.66;47.70;101470.69;5097434;27;20055;-75
2022/10/02 02:52:10;;;;;;;21.73;2.85;;;;;;;23.26;48.87;101472.84;5087213;28;20027;-75
2022/10/02 02:54:42;;;;;;;21.60;3.22;;;;;;;23.33;47.91;101476.91;5088081;28;20132;-75
2022/10/02 02:57:10;;;;;;;16.20;2.47;;;;;;;23.34;48.22;101473.28;5092671;28;20023;-75
2022/10/02 02:59:38;;;;;;;18.58;2.75;;;;;;;23.94;47.31;101482.53;5074864;28;20082;-75
2022/10/02 03:02:04;;;;;;;17.15;2.50;;;;;;;23.61;47.40;101481.59;5107414;27;20391;-75
2022/10/02 03:04:29;;;;;;;20.30;3.10;;;;;;;23.77;46.66;101481.63;5083326;28;20036;-75
2022/10/02 03:07:00;;;;;;;20.17;2.65;;;;;;;22.99;49.42;101500.00;5077626;28;20024;-74
2022/10/02 03:09:29;;;;;;;25.13;3.75;;;;;;;23.09;50.06;101484.38;5079646;28;20032;-75
2022/10/02 03:12:01;;;;;;;21.25;2.80;;;;;;;23.47;48.77;101487.69;5085249;28;20031;-75
2022/10/02 03:14:45;;;;;;;22.65;3.00;;;;;;;22.69;50.87;101493.47;5090159;28;20161;-74
2022/10/02 03:17:29;;;;;;;16.55;3.92;;;;;;;23.59;50.69;101487.97;5086042;28;20028;-75
2022/10/02 03:20:29;;;;;;;15.43;2.75;;;;;;;24.01;48.46;101494.56;5083176;28;20028;-75
2022/10/02 03:23:22;;;;;;;21.02;2.65;;;;;;;23.55;50.05;101492.63;5095760;28;20111;-75
2022/10/02 03:26:12;;;;;;;18.83;2.75;;;;;;;24.43;46.58;101498.41;5102734;28;20514;-75
2022/10/02 03:28:47;;;;;;;23.13;2.90;;;;;;;23.44;48.85;101503.88;5073639;28;20748;-75
2022/10/02 03:31:14;;;;;;;20.52;3.33;;;;;;;23.33;49.26;101503.59;5071158;28;20393;-75
2022/10/02 03:33:40;;;;;;;14.98;2.55;;;;;;;23.13;49.48;101505.47;5081146;28;20033;-75
2022/10/02 03:36:06;;;;;;;24.23;3.20;;;;;;;23.51;48.36;101502.59;5085625;28;20100;-75
2022/10/02 03:38:33;;;;;;;17.48;2.63;;;;;;;23.59;48.16;101503.97;5092365;28;20465;-75
2022/10/02 03:40:58;;;;;;;21.23;2.88;;;;;;;23.13;48.71;101504.63;5076257;28;20035;-75
2022/10/02 03:43:27;;;;;;;20.15;2.85;;;;;;;23.85;47.33;101503.41;5088580;28;20406;-75
2022/10/02 03:45:53;;;;;;;17.80;2.50;;;;;;;23.18;48.42;101495.44;5104254;27;20510;-76
2022/10/02 03:48:19;;;;;;;19.48;2.28;;;;;;;22.85;49.10;101508.69;5090691;28;20123;-75
2022/10/02 03:50:44;;;;;;;16.58;3.45;;;;;;;22.14;51.01;101510.34;5100610;28;20024;-76
2022/10/02 03:53:15;;;;;;;21.65;3.90;;;;;;;23.14;48.50;101501.88;5096886;28;20024;-75
2022/10/02 03:55:47;;;;;;;18.45;2.97;;;;;;;22.85;49.90;101504.22;5088401;28;20035;-75
2022/10/02 03:58:15;;;;;;;23.33;3.10;;;;;;;22.53;49.42;101504.06;5070501;28;20035;-75
2022/10/02 04:00:51;;;;;;;16.60;2.47;;;;;;;22.83;49.11;101506.13;5079215;28;20024;-75
2022/10/02 04:03:29;;;;;;;22.85;2.58;;;;;;;23.19;47.70;101497.16;5077876;28;20028;-75
2022/10/02 04:06:04;;;;;;;15.55;2.15;;;;;;;23.57;46.74;101497.88;5086373;27;20392;-75
2022/10/02 04:08:43;;;;;;;14.27;2.50;;;;;;;23.31;46.81;101494.78;5070717;28;20036;-75
2022/10/02 04:11:22;;;;;;;18.77;2.40;;;;;;;22.91;47.46;101489.72;5088944;28;20057;-75
2022/10/02 04:13:57;;;;;;;18.20;2.50;;;;;;;22.76;48.39;101493.16;5087587;28;20525;-75
2022/10/02 04:16:39;;;;;;;19.63;2.65;;;;;;;23.01;47.81;101503.41;5089800;28;20571;-75
2022/10/02 04:19:28;;;;;;;18.30;2.42;;;;;;;22.84;48.23;101497.16;5089429;28;20515;-75
2022/10/02 04:22:17;;;;;;;18.80;2.58;;;;;;;23.19;46.99;101501.63;5089920;28;20123;-75
2022/10/02 04:25:11;;;;;;;14.52;2.35;;;;;;;22.85;47.68;101504.22;5085196;28;20032;-75
2022/10/02 04:27:51;;;;;;;14.27;2.85;;;;;;;23.13;47.14;101508.16;5089629;28;20483;-75
2022/10/02 04:30:18;;;;;;;15.65;1.98;;;;;;;22.48;48.46;101511.41;5076501;28;20030;-74
2022/10/02 04:32:44;;;;;;;17.30;2.60;;;;;;;21.94;49.85;101510.44;5069498;28;20574;-75
2022/10/02 04:35:34;;;;;;;18.95;2.90;;;;;;;21.40;53.07;101521.69;5079374;28;20020;-75
2022/10/02 04:38:20;;;;;;;12.25;2.38;;;;;;;21.13;53.56;101524.66;5074519;28;20062;-74
2022/10/02 04:41:01;;;;;;;19.63;2.47;;;;;;;22.26;50.03;101522.22;5100871;28;20093;-75
2022/10/02 04:43:49;;;;;;;25.60;2.83;;;;;;;22.68;48.49;101528.19;5106224;28;20046;-75
2022/10/02 04:46:49;;;;;;;19.23;2.20;;;;;;;22.91;47.64;101534.16;5102018;28;20243;-75
2022/10/02 04:49:33;;;;;;;18.88;2.90;;;;;;;23.08;47.07;101536.84;5098403;28;20043;-75
2022/10/02 04:52:23;;;;;;;24.15;3.58;;;;;;;22.35;48.78;101536.91;5084468;28;20384;-75
2022/10/02 04:55:19;;;;;;;11.60;2.50;;;;;;;23.00;47.15;101533.72;5086148;28;20044;-75
2022/10/02 04:58:06;;;;;;;16.77;2.95;;;;;;;22.16;49.94;101543.09;5081022;28;20039;-75
2022/10/02 05:00:46;;;;;;;18.15;2.95;;;;;;;22.49;49.03;101549.53;5070677;28;20440;-75
2022/10/02 05:03:44;;;;;;;16.30;2.10;;;;;;;21.95;50.53;101544.94;5086311;28;20036;-75
2022/10/02 05:06:12;;;;;;;25.17;2.70;;;;;;;22.18;51.22;101551.84;5083778;28;20024;-75
2022/10/02 05:08:56;;;;;;;24.58;2.95;;;;;;;22.34;49.90;101561.81;5088567;28;20134;-75
2022/10/02 05:11:49;;;;;;;28.05;3.58;;;;;;;22.60;50.32;101573.00;5086245;28;20029;-75
2022/10/02 05:14:14;;;;;;;;;;;;;;;22.35;51.07;101560.88;5100601;28;20131;-74
2022/10/02 05:17:07;;;;;;;14.40;2.33;;;;;;;21.79;52.42;101574.09;5090371;28;20003;-74
2022/10/02 05:20:13;;;;;;;21.48;3.00;;;;;;;21.54;54.45;101581.44;5094262;28;20046;-74
2022/10/02 05:23:12;;;;;;;21.15;2.65;;;;;;;22.97;51.16;101580.03;5088762;28;20047;-74
2022/10/02 05:26:13;;;;;;;19.80;3.00;;;;;;;22.62;50.23;101587.97;5102783;28;20127;-74
2022/10/02 05:29:29;;;;;;;17.98;2.25;;;;;;;23.06;49.91;101592.03;5073485;28;20123;-74
2022/10/02 05:32:00;;;;;;;24.00;2.75;;;;;;;22.36;51.58;101597.22;5046426;28;20080;-74
2022/10/02 05:34:25;;;;;;;20.58;2.42;;;;;;;22.43;51.03;101600.47;5051174;28;20085;-74
2022/10/02 05:37:12;;;;;;;15.65;2.65;;;;;;;22.31;51.81;101586.75;5066618;28;20477;-74
2022/10/02 05:40:00;;;;;;;18.45;2.30;;;;;;;22.50;52.39;101599.22;5097496;28;20080;-74
2022/10/02 05:42:33;;;;;;;18.63;2.80;;;;;;;22.40;51.58;101590.81;5072351;28;20028;-74
2022/10/02 05:45:03;;;;;;;20.70;3.25;;;;;;;22.88;50.70;101591.16;5088667;28;20036;-74
2022/10/02 05:47:39;;;;;;;23.52;2.90;;;;;;;23.37;49.46;101590.50;5107781;28;20039;-73
2022/10/02 05:50:33;;;;;;;16.83;2.58;;;;;;;22.30;52.16;101587.69;5108813;27;20056;-74
2022/10/02 05:53:47;;;;;;;15.18;2.20;;;;;;;22.74;50.94;101596.28;5101619;27;20089;-74
2022/10/02 05:56:25;;;;;;;18.80;3.38;;;;;;;22.55;50.74;101601.69;5079666;28;20445;-74
2022/10/02 05:58:55;;;;;;;25.10;3.15;;;;;;;22.90;49.10;101601.72;5085157;28;20369;-74
2022/10/02 06:01:29;;;;;;;18.42;3.70;;;;;;;21.62;53.45;101608.56;5082834;28;20107;-74
2022/10/02 06:04:00;;;;;;;15.02;2.47;;;;;;;22.69;50.65;101599.19;5096922;27;20376;-74
2022/10/02 06:06:33;;;;;;;19.88;2.63;;;;;;;23.42;48.33;101607.09;5095034;28;20066;-74
2022/10/02 06:09:09;;;;;;;20.55;2.92;;;;;;;22.71;49.30;101610.66;5094728;27;20129;-74
2022/10/02 06:11:45;;;;;;;21.17;2.95;;;;;;;22.77;49.37;101618.34;5086220;28;20032;-74
2022/10/02 06:14:26;;;;;;;15.38;3.00;;;;;;;23.53;48.41;101618.09;5097258;27;20505;-74
2022/10/02 06:17:00;;;;;;;18.42;2.50;;;;;;;22.46;50.06;101614.50;5091152;28;20035;-73
2022/10/02 06:19:44;;;;;;;23.38;2.95;;;;;;;21.99;52.70;101614.88;5093995;28;20024;-73
2022/10/02 06:22:18;;;;;;;12.48;2.70;;;;;;;22.29;51.41;101619.72;5091366;28;20472;-73
2022/10/02 06:24:59;;;;;;;21.25;3.83;;;;;;;22.51;50.48;101622.25;5091952;28;20114;-73
2022/10/02 06:27:37;;;;;;;15.23;3.28;;;;;;;22.55;50.66;101633.66;5087440;28;20020;-72
2022/10/02 06:30:05;;;;;;;14.43;2.20;;;;;;;23.27;48.89;101637.22;5094698;28;20035;-72
2022/10/02 06:32:42;;;;;;;18.63;2.25;;;;;;;22.49;50.44;101640.97;5092097;28;20020;-72
2022/10/02 06:35:14;;;;;;;16.98;3.00;;;;;;;22.61;50.59;101636.84;5107605;27;20357;-73
2022/10/02 06:37:58;;;;;;;17.83;2.50;;;;;;;23.01;48.32;101642.03;5108597;27;20479;-72
2022/10/02 06:40:50;;;;;;;20.23;2.78;;;;;;;21.95;51.27;101639.91;5090367;28;20101;-73
2022/10/02 06:43:52;;;;;;;18.90;2.53;;;;;;;22.92;50.13;101648.69;5090902;28;20031;-73
2022/10/02 06:46:31;;;;;;;15.65;3.75;;;;;;;22.65;49.14;101650.91;5091656;28;20344;-74
2022/10/02 06:49:23;;;;;;;16.73;3.28;;;;;;;21.79;52.71;101667.22;5091055;28;20134;-73
2022/10/02 06:52:23;;;;;;;21.38;3.03;;;;;;;22.74;50.04;101660.25;5091695;28;20063;-74
2022/10/02 06:55:26;;;;;;;13.63;2.13;;;;;;;22.86;49.09;101664.97;5090492;28;20038;-73
2022/10/02 06:58:21;;;;;;;11.87;1.90;;;;;;;22.25;52.17;101674.06;5093386;28;20506;-74
2022/10/02 07:01:28;;;;;;;14.73;2.20;;;;;;;23.32;49.04;101667.22;5080458;28;20290;-74
2022/10/02 07:04:24;;;;;;;18.50;3.10;;;;;;;23.42;48.50;101671.13;5051830;28;20028;-73
2022/10/02 07:07:19;;;;;;;16.85;2.80;;;;;;;22.43;50.35;101673.22;5090906;28;20104;-73
2022/10/02 07:09:53;;;;;;;16.33;2.80;;;;;;;22.81;49.71;101669.69;5090984;28;20028;-74
2022/10/02 07:12:42;;;;;;;22.40;2.58;;;;;;;23.37;48.54;101675.84;5103592;27;20032;-73
2022/10/02 07:15:20;;;;;;;21.25;2.35;;;;;;;22.75;50.41;101677.97;5092907;28;20031;-74
2022/10/02 07:17:56;;;;;;;19.92;3.30;;;;;;;23.30;49.16;101690.41;5091051;28;20024;-74
2022/10/02 07:20:47;;;;;;;18.27;2.40;;;;;;;23.80;46.82;101694.97;5091627;28;20028;-74
2022/10/02 07:23:27;;;;;;;14.10;2.40;;;;;;;22.30;50.48;101690.69;5088833;28;20387;-74
2022/10/02 07:26:07;;;;;;;13.30;2.05;;;;;;;22.37;50.89;101684.16;5087783;28;20024;-74
2022/10/02 07:28:46;;;;;;;13.90;2.13;;;;;;;24.01;47.33;101681.47;5089921;28;20111;-74
2022/10/02 07:31:25;;;;;;;12.57;3.33;;;;;;;23.80;45.95;101694.13;5089113;28;20601;-73
2022/10/02 07:34:05;;;;;;;22.90;2.47;;;;;;;23.94;46.16;101688.94;5089088;28;20035;-73
2022/10/02 07:36:33;;;;;;;13.80;2.08;;;;;;;23.19;48.15;101677.59;5086595;28;20062;-74
2022/10/02 07:39:40;;;;;;;13.05;1.90;;;;;;;24.75;45.04;101687.28;5088176;28;20024;-74
2022/10/02 07:42:27;;;;;;;15.13;2.20;;;;;;;24.77;45.26;101690.72;5099365;28;20432;-73
2022/10/02 07:45:20;;;;;;;7.82;2.40;;;;;;;24.76;45.02;101702.34;5082257;28;20709;-73
2022/10/02 07:48:03;;;;;;;13.82;2.33;;;;;;;24.16;45.65;101696.66;5091603;28;20031;-73
2022/10/02 07:50:56;;;;;;;15.95;2.72;;;;;;;24.61;46.05;101688.03;5085504;28;20152;-72
2022/10/02 07:53:52;;;;;;;17.90;2.50;;;;;;;24.75;45.18;101696.16;5104099;28;20101;-73
2022/10/02 07:56:22;;;;;;;13.73;2.17;;;;;;;25.21;44.08;101701.53;5084219;28;20440;-73
2022/10/02 07:58:51;;;;;;;16.95;3.17;;;;;;;24.88;44.46;101709.66;5100591;27;20028;-73
2022/10/02 08:01:27;;;;;;;15.43;3.25;;;;;;;25.01;44.87;101709.84;5104800;28;20032;-72
2022/10/02 08:04:01;;;;;;;18.92;4.13;;;;;;;24.86;45.18;101715.09;5082195;28;20469;-73
2022/10/02 08:06:26;;;;;;;14.02;2.15;;;;;;;24.16;46.61;101727.84;5081334;28;20032;-73
2022/10/02 08:09:15;;;;;;;16.30;1.95;;;;;;;25.27;43.76;101726.22;5087967;28;20533;-73
2022/10/02 08:11:48;;;;;;;17.58;2.35;;;;;;;24.30;45.96;101729.78;5082329;28;20043;-73
2022/10/02 08:14:40;;;;;;;19.02;3.75;;;;;;;24.45;45.67;101728.94;5104829;27;20032;-73
2022/10/02 08:17:24;;;;;;;12.77;1.92;;;;;;;25.51;44.22;101743.53;5084714;28;20040;-73
2022/10/02 08:19:51;;;;;;;15.50;2.30;;;;;;;25.22;43.48;101739.84;5097012;28;20419;-73
2022/10/02 08:22:32;;;;;;;16.67;2.35;;;;;;;24.84;44.76;101756.25;5082278;28;20069;-73
2022/10/02 08:25:07;;;;;;;20.40;3.35;;;;;;;23.66;46.63;101751.72;5088591;28;20028;-73
2022/10/02 08:27:52;;;;;;;15.90;2.20;;;;;;;24.31;45.22;101755.53;5087205;28;20020;-73
2022/10/02 08:30:18;;;;;;;14.55;2.13;;;;;;;26.28;42.98;101761.28;5104654;28;20028;-73
2022/10/02 08:32:46;;;;;;;14.73;2.72;;;;;;;25.83;42.58;101762.16;5086593;28;20049;-73
2022/10/02 08:35:17;;;;;;;14.40;3.30;;;;;;;25.60;43.19;101776.06;5105426;28;20028;-73
2022/10/02 08:38:08;;;;;;;15.23;2.00;;;;;;;26.15;42.48;101770.09;5077983;28;20028;-74
2022/10/02 08:40:34;;;;;;;20.02;2.28;;;;;;;25.42;44.01;101776.19;5082199;28;20028;-74
2022/10/02 08:43:31;;;;;;;9.95;1.95;;;;;;;24.64;44.52;101779.59;5101631;28;20081;-73
2022/10/02 08:46:15;;;;;;;18.50;2.10;;;;;;;24.22;46.55;101787.16;5083826;28;20020;-73
2022/10/02 08:49:10;;;;;;;14.10;3.53;;;;;;;25.51;44.00;101778.34;5096805;28;20518;-73
2022/10/02 08:51:53;;;;;;;16.92;2.20;;;;;;;24.99;45.13;101778.59;5088961;28;20027;-73
2022/10/02 08:54:37;;;;;;;17.35;2.28;;;;;;;24.30;45.98;101780.53;5086781;28;20412;-73
2022/10/02 08:57:35;;;;;;;12.65;3.13;;;;;;;23.84;48.97;101784.63;5105993;28;20437;-73
2022/10/02 09:00:37;;;;;;;15.85;2.38;;;;;;;25.08;44.83;101786.09;5088112;28;20038;-73
2022/10/02 09:03:09;;;;;;;13.70;2.80;;;;;;;24.16;46.66;101792.78;5090334;28;20062;-73
2022/10/02 09:06:06;;;;;;;24.88;4.15;;;;;;;25.36;43.95;101789.91;5104904;28;20024;-73
2022/10/02 09:08:41;;;;;;;14.73;2.05;;;;;;;25.85;42.01;101788.84;5068711;28;20032;-74
2022/10/02 09:11:12;;;;;;;18.33;2.58;;;;;;;25.42;43.16;101792.25;5095577;28;20122;-74
2022/10/02 09:14:10;;;;;;;18.55;2.45;;;;;;;26.05;41.92;101795.72;5092402;28;20065;-74
2022/10/02 09:16:54;;;;;;;14.00;2.00;;;;;;;25.40;42.33;101803.03;5088766;28;20102;-74
2022/10/02 09:19:47;;;;;;;13.95;1.85;;;;;;;24.85;43.00;101817.69;5089470;28;20039;-74
2022/10/02 09:22:27;;;;;;;;;;;;;;;24.51;44.11;101814.13;5087312;28;20075;-74
2022/10/02 09:25:30;;;;;;;10.80;1.95;;;;;;;24.89;42.74;101818.34;5094120;28;19937;-74
2022/10/02 09:28:09;;;;;;;14.43;2.67;;;;;;;24.46;42.61;101816.16;5071151;28;20040;-73
2022/10/02 09:30:56;;;;;;;13.80;2.00;;;;;;;26.16;41.08;101821.84;5096526;28;20028;-74
2022/10/02 09:33:40;;;;;;;13.93;2.08;;;;;;;24.93;42.32;101819.06;5090976;28;20023;-74
2022/10/02 09:36:33;;;;;;;14.73;1.75;;;;;;;25.32;42.09;101820.44;5092968;28;20177;-74
2022/10/02 09:39:23;;;;;;;14.13;2.58;;;;;;;25.14;41.44;101820.53;5088498;28;20047;-74
2022/10/02 09:42:19;;;;;;;14.38;2.70;;;;;;;25.47;40.98;101830.31;5090997;28;20032;-74
2022/10/02 09:44:57;;;;;;;12.18;2.13;;;;;;;25.37;40.53;101823.75;5091558;27;20359;-73
2022/10/02 09:47:39;;;;;;;18.70;2.80;;;;;;;26.41;39.03;101827.44;5085233;28;20037;-74
2022/10/02 09:50:41;;;;;;;16.52;1.70;;;;;;;24.89;40.82;101840.63;5090920;28;20048;-73
2022/10/02 09:53:24;;;;;;;11.15;1.88;;;;;;;26.33;37.56;101835.09;5097221;28;20089;-73
2022/10/02 09:55:56;;;;;;;14.50;2.00;;;;;;;26.17;37.34;101840.53;5090148;28;20185;-73
2022/10/02 09:59:09;;;;;;;16.23;1.85;;;;;;;26.00;37.30;101843.31;5096583;28;20032;-74
2022/10/02 10:02:20;;;;;;;14.23;1.90;;;;;;;25.34;38.56;101843.50;5051196;28;20032;-74
2022/10/02 10:05:07;;;;;;;11.40;1.52;;;;;;;26.26;37.83;101847.13;5083757;28;20024;-74
2022/10/02 10:07:38;;;;;;;12.43;2.20;;;;;;;24.52;39.88;101841.69;5091503;28;20027;-73
2022/10/02 10:10:32;;;;;;;17.45;1.85;;;;;;;24.53;40.75;101844.28;5106635;27;20123;-73
2022/10/02 10:13:35;;;;;;;10.30;1.75;;;;;;;26.44;37.69;101847.81;5092658;28;20028;-74
2022/10/02 10:16:21;;;;;;;14.85;1.95;;;;;;;25.87;37.44;101854.75;5090598;28;20395;-73
2022/10/02 10:19:24;;;;;;;13.60;1.75;;;;;;;25.64;38.26;101863.28;5091840;28;20551;-74
2022/10/02 10:22:08;;;;;;;10.60;1.85;;;;;;;26.61;37.37;101864.69;5091793;28;20042;-74
2022/10/02 10:24:43;;;;;;;12.80;1.80;;;;;;;25.56;39.53;101875.25;5099940;27;20031;-73
2022/10/02 10:27:21;;;;;;;14.38;2.13;;;;;;;25.21;39.11;101877.22;5091284;28;20499;-73
2022/10/02 10:30:02;;;;;;;10.15;2.40;;;;;;;25.91;37.92;101883.06;5102938;27;20039;-73
2022/10/02 10:32:50;;;;;;;12.85;1.85;;;;;;;25.24;38.86;101883.25;5087552;28;20027;-73
2022/10/02 10:35:37;;;;;;;15.98;2.92;;;;;;;24.63;39.61;101881.25;5088205;28;20029;-73
2022/10/02 10:38:31;;;;;;;16.50;2.30;;;;;;;24.31;40.06;101887.28;5087902;28;20036;-73
2022/10/02 10:41:18;;;;;;;8.75;1.67;;;;;;;25.79;38.08;101878.44;5113581;27;20395;-73
2022/10/02 10:43:45;;;;;;;11.48;2.60;;;;;;;26.54;37.56;101886.53;5113406;27;20077;-73
2022/10/02 10:46:25;;;;;;;14.05;2.22;;;;;;;25.59;38.09;101886.75;5087989;28;20039;-74
2022/10/02 10:49:27;;;;;;;12.80;1.77;;;;;;;25.38;35.98;101884.34;5089141;28;20047;-74
2022/10/02 10:52:15;;;;;;;9.32;2.03;;;;;;;25.79;35.36;101891.81;5089618;28;20035;-73
2022/10/02 10:54:43;;;;;;;11.25;1.88;;;;;;;25.69;36.42;101901.31;5094603;28;20031;-73
2022/10/02 10:57:21;;;;;;;20.08;2.47;;;;;;;25.60;36.69;101900.03;5096237;28;20115;-73
2022/10/02 10:59:49;;;;;;;14.60;2.05;;;;;;;25.47;35.67;101907.03;5088248;28;20031;-73
2022/10/02 11:02:57;;;;;;;11.60;1.80;;;;;;;25.91;36.26;101904.50;5091331;28;20036;-73
2022/10/02 11:05:48;;;;;;;10.65;2.15;;;;;;;26.00;36.11;101913.81;5068503;28;20039;-74
2022/10/02 11:08:26;;;;;;;9.00;1.85;;;;;;;25.55;36.39;101911.03;5088649;28;20056;-74
2022/10/02 11:11:10;;;;;;;13.25;2.05;;;;;;;26.02;36.29;101919.09;5090188;28;20028;-74
2022/10/02 11:13:48;;;;;;;13.32;1.70;;;;;;;25.43;35.36;101925.09;5106235;27;20460;-74
2022/10/02 11:16:23;;;;;;;12.80;2.33;;;;;;;26.54;34.90;101924.06;5105252;27;20032;-73
2022/10/02 11:19:19;;;;;;;11.25;2.30;;;;;;;26.68;33.90;101915.16;5107690;27;20059;-73
2022/10/02 11:21:48;;;;;;;18.73;2.10;;;;;;;26.35;33.69;101926.09;5090189;28;20036;-73
2022/10/02 11:24:29;;;;;;;14.35;2.25;;;;;;;25.38;35.63;101927.16;5094360;28;20032;-73
2022/10/02 11:27:13;;;;;;;9.45;2.00;;;;;;;25.20;35.86;101934.34;5089816;28;20046;-74
2022/10/02 11:30:01;;;;;;;13.63;2.92;;;;;;;26.45;34.58;101923.72;5108211;27;20051;-73
2022/10/02 11:33:20;;;;;;;13.30;2.08;;;;;;;25.82;34.97;101926.44;5092700;28;20044;-75
2022/10/02 11:36:03;;;;;;;15.70;2.30;;;;;;;26.10;35.21;101924.03;5051724;28;20036;-73
2022/10/02 11:38:48;;;;;;;18.08;3.13;;;;;;;25.65;35.60;101918.50;5091185;28;20040;-74
2022/10/02 11:41:32;;;;;;;11.00;1.95;;;;;;;26.65;34.61;101925.19;5097173;28;20030;-73
2022/10/02 11:44:15;;;;;;;11.23;2.20;;;;;;;27.63;34.81;101928.06;5089543;28;20272;-74
2022/10/02 11:46:59;;;;;;;;;;;;;;;28.31;32.04;101928.97;5094234;28;20038;-74
2022/10/02 11:49:52;;;;;;;6.32;1.60;;;;;;;28.54;32.08;101930.94;5078864;28;19970;-74
2022/10/02 11:52:23;;;;;;;14.15;2.85;;;;;;;28.45;32.06;101939.63;5079679;28;20035;-73
2022/10/02 11:54:48;;;;;;;8.90;2.15;;;;;;;26.90;32.79;101936.19;5091487;28;20496;-74
2022/10/02 11:57:40;;;;;;;7.53;1.45;;;;;;;27.71;32.99;101936.47;5087088;28;20111;-75
2022/10/02 12:00:31;;;;;;;11.52;2.35;;;;;;;27.93;33.25;101936.81;5089432;28;20028;-73
2022/10/02 12:03:03;;;;;;;10.32;1.80;;;;;;;27.08;34.86;101957.47;5084503;28;20051;-74
2022/10/02 12:05:44;;;;;;;10.18;1.90;;;;;;;26.54;35.94;101961.59;5088509;28;20394;-73
2022/10/02 12:08:13;;;;;;;15.18;3.00;;;;;;;25.63;38.08;101974.81;5111489;27;20024;-74
2022/10/02 12:10:45;;;;;;;15.48;2.10;;;;;;;26.80;36.67;101977.06;5091127;28;20557;-74
2022/10/02 12:13:24;;;;;;;12.02;2.10;;;;;;;26.61;36.07;101970.09;5090581;28;20101;-74
2022/10/02 12:16:21;;;;;;;9.23;1.90;;;;;;;27.23;34.64;101972.59;5089218;28;20532;-73
2022/10/02 12:19:15;;;;;;;12.50;2.08;;;;;;;26.45;36.46;101980.88;5070245;28;20388;-74
2022/10/02 12:27:49;;;;;;;12.40;1.92;;;;;;;26.81;35.53;101979.66;5099461;28;20556;-73
2022/10/02 12:30:21;;;;;;;15.38;2.08;;;;;;;25.00;37.83;101980.88;5102090;28;20165;-73